Aviation Digital Data Service (ADDS)

Output produced by TAFs form (0847 UTC 25 September 2016)
found at http://aviationweather.gov/adds/tafs/
 
KMTJ 250542Z 2506/2606 15006KT P6SM BKN090 
     FM250900 14004KT P6SM SCT100 
     FM251500 VRB03KT P6SM SKC 
     FM252000 32006KT P6SM SKC 
     FM260300 14007KT P6SM SKC